createdAt,value
2023-01-26T00:01:23.417Z,95.54
2023-01-26T00:03:56.957Z,95.40
2023-01-26T00:06:29.764Z,96.45
2023-01-26T00:09:04.561Z,96.62
2023-01-26T00:11:37.475Z,96.51
2023-01-26T00:14:10.394Z,96.71
2023-01-26T00:16:43.429Z,97.03
2023-01-26T00:19:16.364Z,96.58
2023-01-26T00:21:49.112Z,97.68
2023-01-26T00:24:23.437Z,97.21
2023-01-26T00:26:56.234Z,97.27
2023-01-26T00:29:29.302Z,96.37
2023-01-26T00:32:02.071Z,96.77
2023-01-26T00:34:34.894Z,96.15
2023-01-26T00:37:07.693Z,96.45
2023-01-26T00:39:41.804Z,97.39
2023-01-26T00:42:15.786Z,97.14
2023-01-26T00:44:48.707Z,96.67
2023-01-26T00:47:21.470Z,97.04
2023-01-26T00:49:54.304Z,97.77
2023-01-26T00:52:27.067Z,97.82
2023-01-26T00:55:01.147Z,98.07
2023-01-26T00:57:33.957Z,98.69
2023-01-26T01:00:08.999Z,99.21
2023-01-26T01:02:42.009Z,98.40
2023-01-26T01:05:14.772Z,98.40
2023-01-26T01:07:47.529Z,98.32
2023-01-26T01:10:23.235Z,98.86
2023-01-26T01:12:56.486Z,99.35
2023-01-26T01:15:29.456Z,99.51
2023-01-26T01:18:02.246Z,99.57
2023-01-26T01:20:36.030Z,99.53
2023-01-26T01:23:08.807Z,99.72
2023-01-26T01:25:43.489Z,99.67
2023-01-26T01:28:16.290Z,100.00
2023-01-26T01:30:49.070Z,99.90
2023-01-26T01:33:23.649Z,99.85
2023-01-26T01:36:00.710Z,99.55
2023-01-26T01:38:34.022Z,100.00
2023-01-26T01:41:08.356Z,100.00
2023-01-26T01:43:42.351Z,100.00
2023-01-26T01:46:27.828Z,100.00
2023-01-26T01:49:02.379Z,100.00
2023-01-26T01:51:39.610Z,100.00
2023-01-26T01:54:15.817Z,100.00
2023-01-26T01:56:54.883Z,100.00
2023-01-26T01:59:27.924Z,100.00
2023-01-26T02:02:01.035Z,100.00
2023-01-26T02:04:34.174Z,100.00
2023-01-26T02:07:12.455Z,100.00
2023-01-26T02:10:04.290Z,100.00
2023-01-26T02:12:38.633Z,100.00
2023-01-26T02:15:15.308Z,100.00
2023-01-26T02:17:48.174Z,100.00
2023-01-26T02:20:28.393Z,100.00
2023-01-26T02:23:08.139Z,100.00
2023-01-26T02:25:49.025Z,100.00
2023-01-26T02:28:26.235Z,100.00
2023-01-26T02:30:59.248Z,100.00
2023-01-26T02:33:34.139Z,100.00
2023-01-26T02:36:17.698Z,100.00
2023-01-26T02:39:00.408Z,100.00
2023-01-26T02:41:51.132Z,100.00
2023-01-26T02:44:25.694Z,100.00
2023-01-26T02:46:59.033Z,100.00
2023-01-26T02:49:50.928Z,100.00
2023-01-26T02:52:27.026Z,100.00
2023-01-26T02:55:28.094Z,100.00
2023-01-26T02:58:02.570Z,100.00
2023-01-26T03:00:41.805Z,100.00
2023-01-26T03:03:19.441Z,100.00
2023-01-26T03:05:52.550Z,100.00
2023-01-26T03:08:25.802Z,100.00
2023-01-26T03:10:58.816Z,100.00
2023-01-26T03:13:31.723Z,100.00
2023-01-26T03:16:10.225Z,100.00
2023-01-26T03:19:00.537Z,100.00
2023-01-26T03:21:59.340Z,100.00
2023-01-26T03:24:50.237Z,100.00
2023-01-26T03:27:29.211Z,100.00
2023-01-26T03:30:08.978Z,100.00
2023-01-26T03:32:43.285Z,100.00
2023-01-26T03:35:22.583Z,100.00
2023-01-26T03:37:55.749Z,100.00
2023-01-26T03:41:18.335Z,100.00
2023-01-26T03:44:08.677Z,100.00
2023-01-26T03:46:59.091Z,100.00
2023-01-26T03:49:50.615Z,100.00
2023-01-26T03:52:40.843Z,100.00
2023-01-26T03:55:33.920Z,100.00
2023-01-26T03:58:15.794Z,100.00
2023-01-26T04:00:50.713Z,100.00
2023-01-26T04:03:41.222Z,100.00
2023-01-26T04:06:33.374Z,100.00
2023-01-26T04:09:06.265Z,100.00
2023-01-26T04:11:39.459Z,100.00
2023-01-26T04:14:30.544Z,100.00
2023-01-26T04:17:26.228Z,100.00
2023-01-26T04:20:16.680Z,100.00
2023-01-26T04:22:51.667Z,100.00
2023-01-26T04:25:25.273Z,100.00
2023-01-26T04:27:58.302Z,100.00
2023-01-26T04:30:31.256Z,100.00
2023-01-26T04:33:04.141Z,100.00
2023-01-26T04:35:37.041Z,100.00
2023-01-26T04:38:12.245Z,100.00
2023-01-26T04:40:54.586Z,100.00
2023-01-26T04:43:27.981Z,100.00
2023-01-26T04:46:02.243Z,100.00
2023-01-26T04:48:36.862Z,100.00
2023-01-26T04:51:14.507Z,100.00
2023-01-26T04:53:48.892Z,100.00
2023-01-26T04:56:24.172Z,100.00
2023-01-26T04:58:59.689Z,100.00
2023-01-26T05:01:33.070Z,100.00
2023-01-26T05:04:06.933Z,100.00
2023-01-26T05:06:41.948Z,100.00
2023-01-26T05:09:16.492Z,100.00
2023-01-26T05:11:51.460Z,100.00
2023-01-26T05:14:47.590Z,100.00
2023-01-26T05:17:42.880Z,100.00
2023-01-26T05:20:35.161Z,100.00
2023-01-26T05:23:22.946Z,100.00
2023-01-26T05:26:09.258Z,100.00
2023-01-26T05:28:51.251Z,100.00
2023-01-26T05:31:24.165Z,100.00
2023-01-26T05:33:58.943Z,100.00
2023-01-26T05:36:31.727Z,100.00
2023-01-26T05:39:04.725Z,100.00
2023-01-26T05:41:38.888Z,100.00
2023-01-26T05:44:26.582Z,100.00
2023-01-26T05:47:05.614Z,100.00
2023-01-26T05:49:42.666Z,100.00
2023-01-26T05:52:21.690Z,100.00
2023-01-26T05:54:56.425Z,100.00
2023-01-26T05:57:32.111Z,100.00
2023-01-26T06:00:11.857Z,100.00
2023-01-26T06:02:51.764Z,100.00
2023-01-26T06:05:25.258Z,100.00
2023-01-26T06:07:58.603Z,100.00
2023-01-26T06:10:36.053Z,100.00
2023-01-26T06:13:22.092Z,100.00
2023-01-26T06:16:01.949Z,100.00
2023-01-26T06:18:36.316Z,100.00
2023-01-26T06:21:09.467Z,100.00
2023-01-26T06:23:42.302Z,100.00
2023-01-26T06:26:15.188Z,100.00
2023-01-26T06:28:49.648Z,100.00
2023-01-26T06:31:24.691Z,100.00
2023-01-26T06:33:58.372Z,100.00
2023-01-26T06:36:32.464Z,100.00
2023-01-26T06:39:06.222Z,100.00
2023-01-26T06:41:39.208Z,100.00
2023-01-26T06:44:13.991Z,100.00
2023-01-26T06:46:47.219Z,100.00
2023-01-26T06:49:20.076Z,100.00
2023-01-26T06:51:59.536Z,100.00
2023-01-26T06:54:50.555Z,100.00
2023-01-26T06:57:42.012Z,100.00
2023-01-26T07:00:39.577Z,100.00
2023-01-26T07:03:24.979Z,100.00
2023-01-26T07:05:57.825Z,100.00
2023-01-26T07:08:30.613Z,100.00
2023-01-26T07:11:03.637Z,100.00
2023-01-26T07:13:36.619Z,100.00
2023-01-26T07:16:13.603Z,100.00
2023-01-26T07:18:46.616Z,100.00
2023-01-26T07:21:20.113Z,100.00
2023-01-26T07:23:53.297Z,100.00
2023-01-26T07:26:26.324Z,100.00
2023-01-26T07:28:59.127Z,100.00
2023-01-26T07:31:33.934Z,100.00
2023-01-26T07:34:06.941Z,100.00
2023-01-26T07:36:39.756Z,100.00
2023-01-26T07:39:12.852Z,100.00
2023-01-26T07:41:46.005Z,100.00
2023-01-26T07:44:37.579Z,100.00
2023-01-26T07:47:11.959Z,100.00
2023-01-26T07:49:45.565Z,100.00
2023-01-26T07:52:18.493Z,100.00
2023-01-26T07:54:51.508Z,100.00
2023-01-26T07:57:24.322Z,100.00
2023-01-26T07:59:57.309Z,100.00
2023-01-26T08:02:31.480Z,100.00
2023-01-26T08:05:04.653Z,100.00
2023-01-26T08:07:37.423Z,100.00
2023-01-26T08:10:12.512Z,100.00
2023-01-26T08:12:45.774Z,100.00
2023-01-26T08:15:18.545Z,100.00
2023-01-26T08:17:54.723Z,100.00
2023-01-26T08:20:27.986Z,100.00
2023-01-26T08:23:00.794Z,100.00
2023-01-26T08:25:34.047Z,100.00
2023-01-26T08:28:06.821Z,100.00
2023-01-26T08:30:40.362Z,100.00
2023-01-26T08:33:14.829Z,100.00
2023-01-26T08:35:47.992Z,100.00
2023-01-26T08:38:20.774Z,100.00
2023-01-26T08:40:54.436Z,100.00
2023-01-26T08:43:27.624Z,100.00
2023-01-26T08:46:00.791Z,100.00
2023-01-26T08:48:35.062Z,100.00
2023-01-26T08:51:08.994Z,100.00
2023-01-26T08:53:41.931Z,100.00
2023-01-26T08:56:14.997Z,100.00
2023-01-26T08:58:48.217Z,100.00
2023-01-26T09:01:21.103Z,100.00
2023-01-26T09:03:56.266Z,100.00
2023-01-26T09:06:30.254Z,100.00
2023-01-26T09:09:03.063Z,100.00
2023-01-26T09:11:35.864Z,100.00
2023-01-26T09:14:08.697Z,100.00
2023-01-26T09:16:41.532Z,100.00
2023-01-26T09:19:18.108Z,100.00
2023-01-26T09:21:53.862Z,100.00
2023-01-26T09:24:26.979Z,100.00
2023-01-26T09:27:00.042Z,100.00
2023-01-26T09:29:32.823Z,100.00
2023-01-26T09:32:06.233Z,100.00
2023-01-26T09:34:40.872Z,100.00
2023-01-26T09:37:13.671Z,100.00
2023-01-26T09:39:46.504Z,100.00
2023-01-26T09:42:33.648Z,100.00
2023-01-26T09:45:22.879Z,100.00
2023-01-26T09:48:17.905Z,100.00
2023-01-26T09:50:58.141Z,100.00
2023-01-26T09:53:42.072Z,100.00
2023-01-26T09:56:19.283Z,100.00
2023-01-26T09:58:58.423Z,100.00
2023-01-26T10:01:39.060Z,100.00
2023-01-26T10:04:23.493Z,100.00
2023-01-26T10:06:58.542Z,100.00
2023-01-26T10:09:54.968Z,100.00
2023-01-26T10:12:31.586Z,100.00
2023-01-26T10:15:08.423Z,100.00
2023-01-26T10:17:43.599Z,100.00
2023-01-26T10:20:25.987Z,100.00
2023-01-26T10:23:03.251Z,100.00
2023-01-26T10:25:37.926Z,100.00
2023-01-26T10:28:16.366Z,100.00
2023-01-26T10:30:51.327Z,100.00
2023-01-26T10:33:28.426Z,100.00
2023-01-26T10:36:02.227Z,100.00
2023-01-26T10:38:45.005Z,100.00
2023-01-26T10:41:32.645Z,100.00
2023-01-26T10:44:23.025Z,100.00
2023-01-26T10:47:07.871Z,100.00
2023-01-26T10:49:41.009Z,100.00
2023-01-26T10:52:18.535Z,100.00
2023-01-26T10:55:11.981Z,100.00
2023-01-26T10:57:44.921Z,100.00
2023-01-26T11:00:24.332Z,100.00
2023-01-26T11:03:04.470Z,100.00
2023-01-26T11:05:37.299Z,100.00
2023-01-26T11:08:33.541Z,100.00
2023-01-26T11:11:10.351Z,100.00
2023-01-26T11:13:43.222Z,100.00
2023-01-26T11:16:25.979Z,100.00
2023-01-26T11:19:03.103Z,100.00
2023-01-26T11:21:41.380Z,100.00
2023-01-26T11:24:21.590Z,100.00
2023-01-26T11:27:16.189Z,100.00
2023-01-26T11:30:06.153Z,100.00
2023-01-26T11:32:47.475Z,100.00
2023-01-26T11:35:31.253Z,100.00
2023-01-26T11:38:17.535Z,100.00
2023-01-26T11:40:59.933Z,100.00
2023-01-26T11:43:56.963Z,100.00
2023-01-26T11:46:46.303Z,100.00
2023-01-26T11:49:36.229Z,100.00
2023-01-26T11:52:17.025Z,100.00
2023-01-26T11:55:05.451Z,100.00
2023-01-26T11:57:45.179Z,100.00
2023-01-26T12:00:30.596Z,100.00
2023-01-26T12:03:06.060Z,100.00
2023-01-26T12:05:44.302Z,100.00
2023-01-26T12:08:23.265Z,100.00
2023-01-26T12:11:20.215Z,100.00
2023-01-26T12:14:18.961Z,100.00
2023-01-26T12:17:18.436Z,100.00
2023-01-26T12:19:55.914Z,100.00
2023-01-26T12:22:34.342Z,100.00
2023-01-26T12:25:24.928Z,100.00
2023-01-26T12:28:06.557Z,100.00
2023-01-26T12:30:48.530Z,100.00
2023-01-26T12:33:23.009Z,100.00
2023-01-26T12:36:18.015Z,100.00
2023-01-26T12:39:03.051Z,100.00
2023-01-26T12:41:44.969Z,100.00
2023-01-26T12:44:31.058Z,100.00
2023-01-26T12:47:10.664Z,100.00
2023-01-26T12:49:51.462Z,100.00
2023-01-26T12:52:30.395Z,100.00
2023-01-26T12:55:13.567Z,100.00
2023-01-26T12:57:51.504Z,100.00
2023-01-26T13:00:29.876Z,100.00
2023-01-26T13:03:06.591Z,100.00
2023-01-26T13:05:56.685Z,100.00
2023-01-26T13:08:53.399Z,100.00
2023-01-26T13:11:42.158Z,100.00
2023-01-26T13:14:39.289Z,100.00
2023-01-26T13:17:51.876Z,100.00
2023-01-26T13:20:52.991Z,100.00
2023-01-26T13:23:43.399Z,100.00
2023-01-26T13:26:24.695Z,100.00
2023-01-26T13:29:32.692Z,100.00
2023-01-26T13:32:45.263Z,100.00
2023-01-26T13:35:21.555Z,100.00
2023-01-26T13:38:01.981Z,100.00
2023-01-26T13:40:38.141Z,100.00
2023-01-26T13:43:26.231Z,100.00
2023-01-26T13:46:16.180Z,100.00
2023-01-26T13:48:50.627Z,100.00
2023-01-26T13:51:26.893Z,100.00
2023-01-26T13:54:04.408Z,100.00
2023-01-26T13:56:38.902Z,100.00
2023-01-26T13:59:13.564Z,100.00
2023-01-26T14:01:48.163Z,100.00
2023-01-26T14:04:22.794Z,100.00
2023-01-26T14:06:59.527Z,100.00
2023-01-26T14:09:38.276Z,100.00
2023-01-26T14:12:21.870Z,100.00
2023-01-26T14:14:57.538Z,100.00
2023-01-26T14:17:31.854Z,100.00
2023-01-26T14:20:25.246Z,100.00
2023-01-26T14:23:13.628Z,100.00
2023-01-26T14:25:56.915Z,100.00
2023-01-26T14:28:32.200Z,100.00
2023-01-26T14:31:11.774Z,100.00
2023-01-26T14:33:45.206Z,100.00
2023-01-26T14:36:20.957Z,100.00
2023-01-26T14:38:55.879Z,100.00
2023-01-26T14:41:32.338Z,100.00
2023-01-26T14:44:07.382Z,100.00
2023-01-26T14:46:46.673Z,100.00
2023-01-26T14:49:24.456Z,100.00
2023-01-26T14:51:59.402Z,100.00
2023-01-26T14:54:33.156Z,100.00
2023-01-26T14:57:09.642Z,100.00
2023-01-26T14:59:42.626Z,100.00
2023-01-26T15:02:18.169Z,100.00
2023-01-26T15:04:55.701Z,100.00
2023-01-26T15:07:38.879Z,100.00
2023-01-26T15:10:35.618Z,100.00
2023-01-26T15:13:22.491Z,100.00
2023-01-26T15:16:05.343Z,100.00
2023-01-26T15:18:38.173Z,100.00
2023-01-26T15:21:14.564Z,100.00
2023-01-26T15:23:52.122Z,100.00
2023-01-26T15:26:28.536Z,100.00
2023-01-26T15:29:05.236Z,100.00
2023-01-26T15:31:39.933Z,100.00
2023-01-26T15:34:30.456Z,100.00
2023-01-26T15:37:07.562Z,100.00
2023-01-26T15:39:40.402Z,100.00
2023-01-26T15:42:14.723Z,100.00
2023-01-26T15:44:49.055Z,100.00
2023-01-26T15:47:21.839Z,100.00
2023-01-26T15:49:54.704Z,100.00
2023-01-26T15:52:31.061Z,100.00
2023-01-26T15:55:19.928Z,100.00
2023-01-26T15:57:52.800Z,100.00
2023-01-26T16:00:27.278Z,100.00
2023-01-26T16:03:00.765Z,100.00
2023-01-26T16:05:33.669Z,100.00
2023-01-26T16:08:06.697Z,100.00
2023-01-26T16:10:39.852Z,100.00
2023-01-26T16:13:13.779Z,100.00
2023-01-26T16:15:49.433Z,100.00
2023-01-26T16:18:22.348Z,100.00
2023-01-26T16:20:55.253Z,100.00
2023-01-26T16:23:31.742Z,100.00
2023-01-26T16:26:04.709Z,100.00
2023-01-26T16:28:37.535Z,100.00
2023-01-26T16:31:16.864Z,100.00
2023-01-26T16:33:51.185Z,100.00
2023-01-26T16:36:24.327Z,100.00
2023-01-26T16:38:57.172Z,100.00
2023-01-26T16:41:32.776Z,100.00
2023-01-26T16:44:14.165Z,100.00
2023-01-26T16:46:48.359Z,100.00
2023-01-26T16:49:21.297Z,100.00
2023-01-26T16:51:54.084Z,100.00
2023-01-26T16:54:26.840Z,100.00
2023-01-26T16:56:59.955Z,100.00
2023-01-26T16:59:32.744Z,100.00
2023-01-26T17:02:12.057Z,100.00
2023-01-26T17:04:44.850Z,100.00
2023-01-26T17:07:17.671Z,100.00
2023-01-26T17:09:50.690Z,100.00
2023-01-26T17:12:23.444Z,100.00
2023-01-26T17:14:56.293Z,100.00
2023-01-26T17:17:30.415Z,100.00
2023-01-26T17:20:18.014Z,100.00
2023-01-26T17:22:52.310Z,100.00
2023-01-26T17:25:25.132Z,100.00
2023-01-26T17:27:58.174Z,100.00
2023-01-26T17:30:31.044Z,100.00
2023-01-26T17:33:05.306Z,100.00
2023-01-26T17:35:38.420Z,100.00
2023-01-26T17:38:11.491Z,100.00
2023-01-26T17:40:44.257Z,100.00
2023-01-26T17:43:16.982Z,100.00
2023-01-26T17:45:50.387Z,100.00
2023-01-26T17:48:24.737Z,100.00
2023-01-26T17:50:58.273Z,100.00
2023-01-26T17:53:31.023Z,100.00
2023-01-26T17:56:04.171Z,100.00
2023-01-26T17:58:37.261Z,100.00
2023-01-26T18:01:11.439Z,100.00
2023-01-26T18:03:45.833Z,100.00
2023-01-26T18:06:18.870Z,100.00
2023-01-26T18:08:51.816Z,100.00
2023-01-26T18:11:24.769Z,100.00
2023-01-26T18:13:57.635Z,100.00
2023-01-26T18:16:30.663Z,100.00
2023-01-26T18:19:04.933Z,100.00
2023-01-26T18:21:38.000Z,100.00
2023-01-26T18:24:11.047Z,100.00
2023-01-26T18:26:43.913Z,100.00
2023-01-26T18:29:16.795Z,100.00
2023-01-26T18:31:49.694Z,100.00
2023-01-26T18:34:23.870Z,100.00
2023-01-26T18:36:56.753Z,100.00
2023-01-26T18:39:29.963Z,100.00
2023-01-26T18:42:02.762Z,100.00
2023-01-26T18:44:35.544Z,100.00
2023-01-26T18:47:08.373Z,100.00
2023-01-26T18:49:42.527Z,100.00
2023-01-26T18:52:15.277Z,100.00
2023-01-26T18:54:48.156Z,100.00
2023-01-26T18:57:20.961Z,100.00
2023-01-26T18:59:53.722Z,100.00
2023-01-26T19:02:26.587Z,100.00
2023-01-26T19:05:00.830Z,100.00
2023-01-26T19:07:33.635Z,100.00
2023-01-26T19:10:07.317Z,100.00
2023-01-26T19:12:40.200Z,100.00
2023-01-26T19:15:13.257Z,100.00
2023-01-26T19:17:46.328Z,100.00
2023-01-26T19:20:20.504Z,100.00
2023-01-26T19:22:54.084Z,100.00
2023-01-26T19:25:27.219Z,100.00
2023-01-26T19:28:00.051Z,100.00
2023-01-26T19:30:33.166Z,100.00
2023-01-26T19:33:23.359Z,100.00
2023-01-26T19:35:58.363Z,100.00
2023-01-26T19:38:32.527Z,100.00
2023-01-26T19:41:05.441Z,100.00
2023-01-26T19:43:38.374Z,100.00
2023-01-26T19:46:13.599Z,100.00
2023-01-26T19:48:46.973Z,100.00
2023-01-26T19:51:22.812Z,100.00
2023-01-26T19:53:59.086Z,100.00
2023-01-26T19:56:35.331Z,100.00
2023-01-26T19:59:11.470Z,100.00
2023-01-26T20:01:44.720Z,100.00
2023-01-26T20:04:17.472Z,100.00
2023-01-26T20:06:51.620Z,100.00
2023-01-26T20:09:24.458Z,100.00
2023-01-26T20:11:57.250Z,100.00
2023-01-26T20:14:30.042Z,100.00
2023-01-26T20:17:03.233Z,100.00
2023-01-26T20:19:36.082Z,100.00
2023-01-26T20:22:10.500Z,100.00
2023-01-26T20:24:43.365Z,100.00
2023-01-26T20:27:16.292Z,100.00
2023-01-26T20:29:49.094Z,100.00
2023-01-26T20:32:21.949Z,100.00
2023-01-26T20:34:54.751Z,100.00
2023-01-26T20:37:29.081Z,100.00
2023-01-26T20:40:01.862Z,100.00
2023-01-26T20:42:35.941Z,100.00
2023-01-26T20:45:09.704Z,100.00
2023-01-26T20:47:43.467Z,100.00
2023-01-26T20:50:16.331Z,100.00
2023-01-26T20:52:50.466Z,100.00
2023-01-26T20:55:23.286Z,100.00
2023-01-26T20:57:56.303Z,100.00
2023-01-26T21:00:29.101Z,100.00
2023-01-26T21:03:01.871Z,100.00
2023-01-26T21:05:34.645Z,100.00
2023-01-26T21:08:08.798Z,100.00
2023-01-26T21:10:41.573Z,100.00
2023-01-26T21:13:14.373Z,100.00
2023-01-26T21:15:47.294Z,100.00
2023-01-26T21:18:20.388Z,100.00
2023-01-26T21:20:57.284Z,100.00
2023-01-26T21:23:32.068Z,100.00
2023-01-26T21:26:07.440Z,100.00
2023-01-26T21:28:40.403Z,100.00
2023-01-26T21:31:14.688Z,100.00
2023-01-26T21:33:49.231Z,99.22
2023-01-26T21:36:23.556Z,100.00
2023-01-26T21:39:00.079Z,100.00
2023-01-26T21:41:51.809Z,99.95
2023-01-26T21:44:26.487Z,100.00
2023-01-26T21:47:01.415Z,100.00
2023-01-26T21:49:34.056Z,100.00
2023-01-26T21:52:24.384Z,100.00
2023-01-26T21:54:58.920Z,100.00
2023-01-26T21:57:51.135Z,100.00
2023-01-26T22:00:23.915Z,100.00
2023-01-26T22:02:59.427Z,100.00
2023-01-26T22:05:32.241Z,100.00
2023-01-26T22:08:08.314Z,100.00
2023-01-26T22:10:42.844Z,100.00
2023-01-26T22:13:15.627Z,100.00
2023-01-26T22:15:48.681Z,100.00
2023-01-26T22:18:21.584Z,100.00
2023-01-26T22:20:55.821Z,100.00
2023-01-26T22:23:31.732Z,100.00
2023-01-26T22:26:07.445Z,100.00
2023-01-26T22:28:40.818Z,100.00
2023-01-26T22:31:14.671Z,100.00
2023-01-26T22:33:47.761Z,100.00
2023-01-26T22:36:21.995Z,99.94
2023-01-26T22:38:55.087Z,100.00
2023-01-26T22:41:30.511Z,99.58
2023-01-26T22:44:03.538Z,96.68
2023-01-26T22:46:36.787Z,98.13
2023-01-26T22:49:11.432Z,96.70
2023-01-26T22:51:44.147Z,96.15
2023-01-26T22:54:16.902Z,96.14
2023-01-26T22:56:51.077Z,95.88
2023-01-26T22:59:24.005Z,93.84
2023-01-26T23:01:57.137Z,95.27
2023-01-26T23:04:29.957Z,94.25
2023-01-26T23:07:02.962Z,94.69
2023-01-26T23:09:35.839Z,93.08
2023-01-26T23:12:10.120Z,94.53
2023-01-26T23:14:43.496Z,94.94
2023-01-26T23:17:16.296Z,95.59
2023-01-26T23:19:49.179Z,96.25
2023-01-26T23:22:22.061Z,96.55
2023-01-26T23:25:08.931Z,95.00
2023-01-26T23:27:43.082Z,96.39
2023-01-26T23:30:15.995Z,96.00
2023-01-26T23:32:48.772Z,93.51
2023-01-26T23:35:21.555Z,95.17
2023-01-26T23:37:54.356Z,95.68
2023-01-26T23:40:27.141Z,96.31
2023-01-26T23:43:15.687Z,96.28
2023-01-26T23:45:50.984Z,97.47
2023-01-26T23:48:24.503Z,97.05
2023-01-26T23:50:57.508Z,97.07
2023-01-26T23:53:31.446Z,97.68
2023-01-26T23:56:07.687Z,95.81
2023-01-26T23:58:42.174Z,95.45
